createdAt,value
2023-04-24T00:01:46.182Z,98667.03
2023-04-24T00:04:15.365Z,98669.03
2023-04-24T00:06:43.785Z,98657.44
2023-04-24T00:09:11.115Z,98653.84
2023-04-24T00:11:37.847Z,98663.03
2023-04-24T00:14:04.412Z,98666.59
2023-04-24T00:16:30.881Z,98670.16
2023-04-24T00:18:57.372Z,98677.72
2023-04-24T00:21:26.560Z,98687.25
2023-04-24T00:23:53.921Z,98682.44
2023-04-24T00:26:21.006Z,98680.13
2023-04-24T00:28:47.501Z,98685.72
2023-04-24T00:31:14.055Z,98677.69
2023-04-24T00:33:40.941Z,98680.44
2023-04-24T00:36:08.003Z,98674.50
2023-04-24T00:38:34.647Z,98673.75
2023-04-24T00:41:01.142Z,98684.50
2023-04-24T00:43:27.664Z,98676.97
2023-04-24T00:45:54.283Z,98688.53
2023-04-24T00:48:21.478Z,98681.78
2023-04-24T00:50:47.967Z,98667.44
2023-04-24T00:53:14.488Z,98667.50
2023-04-24T00:55:41.199Z,98672.63
2023-04-24T00:58:07.675Z,98682.59
2023-04-24T01:00:34.466Z,98669.84
2023-04-24T01:03:02.986Z,98662.66
2023-04-24T01:05:29.929Z,98663.03
2023-04-24T01:07:56.996Z,98667.81
2023-04-24T01:10:24.275Z,98656.69
2023-04-24T01:12:51.714Z,98661.84
2023-04-24T01:15:18.855Z,98664.25
2023-04-24T01:17:46.110Z,98666.63
2023-04-24T01:20:13.810Z,98669.00
2023-04-24T01:22:41.406Z,98664.22
2023-04-24T01:25:08.442Z,98659.81
2023-04-24T01:27:35.536Z,98664.97
2023-04-24T01:30:02.429Z,98665.72
2023-04-24T01:32:29.263Z,98672.09
2023-04-24T01:34:56.602Z,98676.16
2023-04-24T01:37:23.671Z,98669.41
2023-04-24T01:39:50.550Z,98671.75
2023-04-24T01:42:17.757Z,98678.56
2023-04-24T01:44:44.863Z,98668.59
2023-04-24T01:47:12.442Z,98670.56
2023-04-24T01:49:40.136Z,98665.00
2023-04-24T01:52:06.957Z,98665.03
2023-04-24T01:54:34.153Z,98665.81
2023-04-24T01:57:02.045Z,98665.81
2023-04-24T01:59:29.087Z,98660.22
2023-04-24T02:01:55.726Z,98662.59
2023-04-24T02:04:22.738Z,98660.63
2023-04-24T02:06:49.564Z,98659.47
2023-04-24T02:09:17.019Z,98659.84
2023-04-24T02:11:44.467Z,98667.03
2023-04-24T02:14:11.111Z,98661.84
2023-04-24T02:16:37.582Z,98665.84
2023-04-24T02:19:04.542Z,98655.47
2023-04-24T02:21:32.072Z,98669.00
2023-04-24T02:23:58.699Z,98667.00
2023-04-24T02:26:25.959Z,98661.84
2023-04-24T02:28:52.660Z,98661.84
2023-04-24T02:31:19.213Z,98658.66
2023-04-24T02:33:45.814Z,98655.09
2023-04-24T02:36:12.498Z,98665.84
2023-04-24T02:38:39.074Z,98663.03
2023-04-24T02:41:07.227Z,98659.47
2023-04-24T02:43:34.397Z,98664.22
2023-04-24T02:46:01.031Z,98660.25
2023-04-24T02:48:27.458Z,98659.84
2023-04-24T02:50:54.150Z,98661.06
2023-04-24T02:53:20.652Z,98660.69
2023-04-24T02:55:47.180Z,98660.25
2023-04-24T02:58:14.127Z,98655.06
2023-04-24T03:00:40.924Z,98657.84
2023-04-24T03:03:08.302Z,98649.47
2023-04-24T03:05:35.017Z,98654.25
2023-04-24T03:08:01.743Z,98651.06
2023-04-24T03:10:28.232Z,98654.66
2023-04-24T03:12:56.041Z,98657.06
2023-04-24T03:15:22.796Z,98648.25
2023-04-24T03:17:49.283Z,98650.28
2023-04-24T03:20:15.822Z,98648.28
2023-04-24T03:22:42.254Z,98647.09
2023-04-24T03:25:10.459Z,98653.13
2023-04-24T03:27:37.147Z,98647.53
2023-04-24T03:30:04.145Z,98644.75
2023-04-24T03:32:31.350Z,98652.34
2023-04-24T03:34:57.993Z,98656.28
2023-04-24T03:37:24.489Z,98651.91
2023-04-24T03:39:51.028Z,98659.13
2023-04-24T03:42:17.556Z,98665.09
2023-04-24T03:44:44.330Z,98664.69
2023-04-24T03:47:11.053Z,98662.72
2023-04-24T03:49:37.718Z,98657.91
2023-04-24T03:52:04.270Z,98660.72
2023-04-24T03:54:30.919Z,98665.50
2023-04-24T03:56:57.476Z,98674.69
2023-04-24T03:59:23.961Z,98681.47
2023-04-24T04:01:51.183Z,98682.25
2023-04-24T04:04:17.960Z,98684.25
2023-04-24T04:06:45.206Z,98683.47
2023-04-24T04:09:11.826Z,98683.47
2023-04-24T04:11:38.318Z,98689.84
2023-04-24T04:14:04.893Z,98687.84
2023-04-24T04:16:31.391Z,98682.25
2023-04-24T04:18:57.908Z,98689.06
2023-04-24T04:21:24.480Z,98688.25
2023-04-24T04:23:51.028Z,98683.88
2023-04-24T04:26:17.447Z,98686.25
2023-04-24T04:28:45.891Z,98690.25
2023-04-24T04:31:13.865Z,98689.47
2023-04-24T04:33:40.791Z,98694.25
2023-04-24T04:36:07.560Z,98697.44
2023-04-24T04:38:34.656Z,98696.25
2023-04-24T04:41:01.619Z,98695.06
2023-04-24T04:43:28.320Z,98693.84
2023-04-24T04:45:55.909Z,98697.44
2023-04-24T04:48:23.244Z,98693.06
2023-04-24T04:50:49.723Z,98690.66
2023-04-24T04:53:16.148Z,98693.44
2023-04-24T04:55:42.904Z,98687.06
2023-04-24T04:58:09.398Z,98697.03
2023-04-24T05:00:38.398Z,98690.22
2023-04-24T05:03:19.290Z,98702.63
2023-04-24T05:05:47.945Z,98705.00
2023-04-24T05:08:25.736Z,98704.63
2023-04-24T05:10:54.246Z,98706.59
2023-04-24T05:13:28.443Z,98704.16
2023-04-24T05:15:59.216Z,98703.38
2023-04-24T05:18:25.820Z,98708.56
2023-04-24T05:20:52.268Z,98708.16
2023-04-24T05:23:18.685Z,98709.69
2023-04-24T05:25:45.395Z,98708.41
2023-04-24T05:28:11.876Z,98706.31
2023-04-24T05:30:38.435Z,98707.06
2023-04-24T05:33:04.969Z,98706.72
2023-04-24T05:35:31.436Z,98706.69
2023-04-24T05:37:58.067Z,98705.47
2023-04-24T05:40:24.690Z,98701.47
2023-04-24T05:42:51.131Z,98703.38
2023-04-24T05:45:18.732Z,98706.44
2023-04-24T05:47:45.970Z,98701.53
2023-04-24T05:50:12.841Z,98698.59
2023-04-24T05:52:39.437Z,98700.59
2023-04-24T05:55:06.419Z,98704.44
2023-04-24T05:57:32.916Z,98710.94
2023-04-24T05:59:59.428Z,98719.53
2023-04-24T06:02:26.030Z,98721.38
2023-04-24T06:04:52.918Z,98724.63
2023-04-24T06:07:19.436Z,98725.28
2023-04-24T06:09:45.966Z,98724.59
2023-04-24T06:12:12.429Z,98730.44
2023-04-24T06:14:38.977Z,98719.03
2023-04-24T06:17:05.713Z,98718.00
2023-04-24T06:19:32.124Z,98720.59
2023-04-24T06:21:59.301Z,98721.91
2023-04-24T06:24:29.482Z,98722.16
2023-04-24T06:26:58.153Z,98712.56
2023-04-24T06:29:24.725Z,98715.59
2023-04-24T06:31:51.237Z,98717.78
2023-04-24T06:34:17.707Z,98719.75
2023-04-24T06:36:44.229Z,98721.16
2023-04-24T06:39:10.857Z,98736.34
2023-04-24T06:41:37.387Z,98730.59
2023-04-24T06:44:03.809Z,98732.13
2023-04-24T06:46:30.843Z,98737.25
2023-04-24T06:48:57.411Z,98737.09
2023-04-24T06:51:27.629Z,98732.94
2023-04-24T06:53:54.617Z,98733.66
2023-04-24T06:56:21.976Z,98733.47
2023-04-24T06:58:49.012Z,98723.09
2023-04-24T07:01:15.898Z,98731.31
2023-04-24T07:03:43.285Z,98729.41
2023-04-24T07:06:12.171Z,98731.28
2023-04-24T07:08:38.688Z,98732.09
2023-04-24T07:11:05.441Z,98726.97
2023-04-24T07:13:31.840Z,98725.16
2023-04-24T07:15:58.369Z,98729.94
2023-04-24T07:18:25.059Z,98740.34
2023-04-24T07:20:51.846Z,98745.91
2023-04-24T07:23:18.969Z,98739.97
2023-04-24T07:25:45.653Z,98746.78
2023-04-24T07:28:12.167Z,98742.25
2023-04-24T07:30:38.599Z,98739.28
2023-04-24T07:33:05.103Z,98741.16
2023-04-24T07:35:31.746Z,98739.69
2023-04-24T07:37:58.579Z,98749.22
2023-04-24T07:40:25.096Z,98749.78
2023-04-24T07:42:51.804Z,98745.69
2023-04-24T07:45:18.258Z,98751.81
2023-04-24T07:47:46.564Z,98753.66
2023-04-24T07:50:14.053Z,98748.28
2023-04-24T07:52:40.563Z,98743.34
2023-04-24T07:55:08.062Z,98749.06
2023-04-24T07:57:34.762Z,98756.34
2023-04-24T08:00:02.017Z,98748.81
2023-04-24T08:02:28.953Z,98755.44
2023-04-24T08:04:56.303Z,98751.75
2023-04-24T08:07:24.584Z,98758.84
2023-04-24T08:09:51.040Z,98753.88
2023-04-24T08:12:17.459Z,98751.38
2023-04-24T08:14:44.101Z,98762.28
2023-04-24T08:17:10.948Z,98760.28
2023-04-24T08:19:37.436Z,98763.56
2023-04-24T08:22:05.164Z,98767.16
2023-04-24T08:24:31.638Z,98770.63
2023-04-24T08:26:58.947Z,98772.09
2023-04-24T08:29:25.865Z,98767.59
2023-04-24T08:31:52.597Z,98763.63
2023-04-24T08:34:19.015Z,98767.84
2023-04-24T08:36:47.552Z,98768.72
2023-04-24T08:39:15.273Z,98765.16
2023-04-24T08:41:44.282Z,98769.19
2023-04-24T08:44:11.924Z,98771.09
2023-04-24T08:46:38.537Z,98778.75
2023-04-24T08:49:05.780Z,98773.34
2023-04-24T08:51:32.271Z,98773.31
2023-04-24T08:53:58.911Z,98778.13
2023-04-24T08:56:25.738Z,98764.78
2023-04-24T08:58:52.902Z,98773.22
2023-04-24T09:01:21.013Z,98779.84
2023-04-24T09:03:50.556Z,98773.13
2023-04-24T09:06:18.846Z,98780.09
2023-04-24T09:08:46.489Z,98779.50
2023-04-24T09:11:13.207Z,98775.06
2023-04-24T09:13:40.398Z,98776.81
2023-04-24T09:16:07.239Z,98768.22
2023-04-24T09:18:34.689Z,98771.34
2023-04-24T09:21:03.663Z,98779.91
2023-04-24T09:23:32.010Z,98775.31
2023-04-24T09:26:01.095Z,98782.00
2023-04-24T09:28:31.007Z,98780.34
2023-04-24T09:31:24.195Z,98775.31
2023-04-24T09:34:01.505Z,98783.38
2023-04-24T09:36:38.080Z,98775.16
2023-04-24T09:39:06.471Z,98775.44
2023-04-24T09:41:33.817Z,98770.66
2023-04-24T09:44:17.173Z,98778.63
2023-04-24T09:46:45.770Z,98772.09
2023-04-24T09:49:17.527Z,98774.28
2023-04-24T09:51:44.605Z,98779.19
2023-04-24T09:54:16.710Z,98781.44
2023-04-24T09:56:45.609Z,98773.66
2023-04-24T09:59:13.340Z,98757.47
2023-04-24T10:01:43.012Z,98765.91
2023-04-24T10:04:29.934Z,98769.75
2023-04-24T10:06:57.560Z,98773.31
2023-04-24T10:09:26.513Z,98765.53
2023-04-24T10:11:54.718Z,98768.97
2023-04-24T10:14:22.989Z,98767.50
2023-04-24T10:16:50.459Z,98771.03
2023-04-24T10:19:19.653Z,98761.38
2023-04-24T10:21:49.599Z,98766.88
2023-04-24T10:24:18.220Z,98766.78
2023-04-24T10:26:46.184Z,98757.47
2023-04-24T10:29:13.965Z,98756.91
2023-04-24T10:31:41.148Z,98752.59
2023-04-24T10:34:08.901Z,98754.59
2023-04-24T10:36:36.690Z,98746.44
2023-04-24T10:39:05.972Z,98749.09
2023-04-24T10:41:32.378Z,98747.44
2023-04-24T10:44:13.289Z,98756.41
2023-04-24T10:46:44.341Z,98763.19
2023-04-24T10:49:10.974Z,98765.97
2023-04-24T10:51:49.057Z,98767.66
2023-04-24T10:54:42.305Z,98756.31
2023-04-24T10:57:21.741Z,98756.59
2023-04-24T10:59:52.838Z,98775.56
2023-04-24T11:02:19.761Z,98760.25
2023-04-24T11:04:47.308Z,98760.78
2023-04-24T11:07:14.094Z,98759.53
2023-04-24T11:09:43.874Z,98773.56
2023-04-24T11:12:11.952Z,98766.81
2023-04-24T11:14:56.882Z,98765.97
2023-04-24T11:17:35.071Z,98772.16
2023-04-24T11:20:22.867Z,98757.78
2023-04-24T11:22:55.680Z,98756.13
2023-04-24T11:25:23.719Z,98770.66
2023-04-24T11:27:51.174Z,98767.50
2023-04-24T11:30:21.582Z,98758.78
2023-04-24T11:32:54.340Z,98770.84
2023-04-24T11:35:26.037Z,98769.22
2023-04-24T11:38:18.777Z,98769.41
2023-04-24T11:40:40.996Z,98775.78
2023-04-24T11:43:08.500Z,98775.88
2023-04-24T11:45:35.239Z,98763.75
2023-04-24T11:48:04.065Z,98761.13
2023-04-24T11:50:30.707Z,98765.13
2023-04-24T11:52:57.667Z,98764.13
2023-04-24T11:55:29.086Z,98758.19
2023-04-24T11:58:00.171Z,98766.56
2023-04-24T12:00:29.365Z,98763.88
2023-04-24T12:03:10.098Z,98758.31
2023-04-24T12:05:37.273Z,98764.22
2023-04-24T12:08:04.031Z,98775.03
2023-04-24T12:10:32.110Z,98772.00
2023-04-24T12:12:59.337Z,98771.44
2023-04-24T12:15:26.995Z,98775.78
2023-04-24T12:17:54.844Z,98757.03
2023-04-24T12:20:31.455Z,98768.00
2023-04-24T12:22:59.827Z,98757.59
2023-04-24T12:25:32.246Z,98760.59
2023-04-24T12:28:04.887Z,98757.66
2023-04-24T12:30:33.444Z,98768.13
2023-04-24T12:33:01.346Z,98766.94
2023-04-24T12:35:29.836Z,98773.19
2023-04-24T12:37:56.386Z,98757.47
2023-04-24T12:40:23.150Z,98781.94
2023-04-24T12:42:51.668Z,98780.72
2023-04-24T12:45:19.865Z,98780.09
2023-04-24T12:47:47.172Z,98782.34
2023-04-24T12:50:16.009Z,98790.84
2023-04-24T12:52:43.061Z,98784.66
2023-04-24T12:55:10.287Z,98788.63
2023-04-24T12:57:38.952Z,98798.59
2023-04-24T13:00:07.541Z,98792.94
2023-04-24T13:02:35.336Z,98788.84
2023-04-24T13:05:02.465Z,98778.63
2023-04-24T13:07:29.115Z,98783.72
2023-04-24T13:09:56.883Z,98767.97
2023-04-24T13:12:27.837Z,98774.75
2023-04-24T13:14:54.665Z,98776.41
2023-04-24T13:17:21.483Z,98765.09
2023-04-24T13:19:50.175Z,98763.50
2023-04-24T13:22:16.811Z,98758.81
2023-04-24T13:24:43.362Z,98772.28
2023-04-24T13:27:10.678Z,98772.69
2023-04-24T13:29:38.121Z,98762.84
2023-04-24T13:32:04.713Z,98772.63
2023-04-24T13:34:31.571Z,98779.25
2023-04-24T13:36:59.442Z,98771.00
2023-04-24T13:39:27.090Z,98788.53
2023-04-24T13:41:54.360Z,98773.34
2023-04-24T13:44:21.769Z,98762.91
2023-04-24T13:46:49.581Z,98772.03
2023-04-24T13:49:16.737Z,98773.78
2023-04-24T13:51:44.006Z,98782.88
2023-04-24T13:54:10.560Z,98769.44
2023-04-24T13:56:36.995Z,98765.72
2023-04-24T13:59:03.852Z,98771.72
2023-04-24T14:01:30.484Z,98764.03
2023-04-24T14:03:57.572Z,98776.28
2023-04-24T14:06:24.602Z,98764.16
2023-04-24T14:08:51.608Z,98770.28
2023-04-24T14:11:18.775Z,98769.09
2023-04-24T14:13:46.513Z,98769.69
2023-04-24T14:16:14.046Z,98756.88
2023-04-24T14:18:41.059Z,98759.34
2023-04-24T14:21:07.839Z,98760.94
2023-04-24T14:23:34.336Z,98750.88
2023-04-24T14:26:00.930Z,98748.72
2023-04-24T14:28:27.651Z,98749.00
2023-04-24T14:30:54.406Z,98756.00
2023-04-24T14:33:20.930Z,98767.00
2023-04-24T14:35:47.458Z,98752.75
2023-04-24T14:38:14.074Z,98757.06
2023-04-24T14:43:10.759Z,98765.88
2023-04-24T14:45:38.089Z,98750.63
2023-04-24T14:48:04.803Z,98758.28
2023-04-24T14:50:31.473Z,98754.78
2023-04-24T14:53:02.963Z,98752.66
2023-04-24T14:55:29.869Z,98764.03
2023-04-24T14:57:56.567Z,98767.91
2023-04-24T15:00:24.957Z,98762.53
2023-04-24T15:02:51.826Z,98779.78
2023-04-24T15:05:18.826Z,98768.53
2023-04-24T15:07:46.401Z,98773.19
2023-04-24T15:10:13.072Z,98774.50
2023-04-24T15:12:39.953Z,98785.13
2023-04-24T15:15:07.199Z,98789.03
2023-04-24T15:17:33.752Z,98770.94
2023-04-24T15:20:01.816Z,98776.38
2023-04-24T15:22:28.574Z,98785.72
2023-04-24T15:24:55.091Z,98782.66
2023-04-24T15:27:21.593Z,98782.56
2023-04-24T15:29:48.098Z,98788.56
2023-04-24T15:32:14.604Z,98793.03
2023-04-24T15:34:41.345Z,98797.13
2023-04-24T15:37:07.881Z,98797.84
2023-04-24T15:39:34.294Z,98797.84
2023-04-24T15:42:01.640Z,98803.69
2023-04-24T15:44:28.168Z,98795.75
2023-04-24T15:46:56.261Z,98794.25
2023-04-24T15:49:22.939Z,98799.84
2023-04-24T15:51:49.441Z,98803.88
2023-04-24T15:54:15.943Z,98801.59
2023-04-24T15:56:42.655Z,98804.16
2023-04-24T15:59:09.408Z,98807.34
2023-04-24T16:01:36.026Z,98813.88
2023-04-24T16:04:03.011Z,98818.75
2023-04-24T16:06:29.603Z,98826.78
2023-04-24T16:08:58.506Z,98820.25
2023-04-24T16:11:26.321Z,98827.88
2023-04-24T16:13:52.870Z,98829.09
2023-04-24T16:16:19.457Z,98831.53
2023-04-24T16:18:46.419Z,98827.88
2023-04-24T16:21:13.202Z,98828.41
2023-04-24T16:23:39.697Z,98822.34
2023-04-24T16:26:06.234Z,98827.56
2023-04-24T16:28:32.838Z,98819.16
2023-04-24T16:30:59.650Z,98838.50
2023-04-24T16:33:26.489Z,98837.78
2023-04-24T16:35:53.245Z,98850.63
2023-04-24T16:38:20.075Z,98863.97
2023-04-24T16:40:46.528Z,98856.88
2023-04-24T16:43:12.949Z,98858.09
2023-04-24T16:45:39.461Z,98860.53
2023-04-24T16:48:06.221Z,98863.75
2023-04-24T16:50:33.161Z,98866.91
2023-04-24T16:52:59.665Z,98864.47
2023-04-24T16:55:26.394Z,98855.28
2023-04-24T16:57:53.203Z,98861.31
2023-04-24T17:00:19.949Z,98870.03
2023-04-24T17:02:48.962Z,98863.97
2023-04-24T17:05:15.849Z,98872.88
2023-04-24T17:07:42.550Z,98867.69
2023-04-24T17:10:09.463Z,98866.13
2023-04-24T17:12:35.908Z,98876.59
2023-04-24T17:15:02.564Z,98870.19
2023-04-24T17:17:29.053Z,98881.50
2023-04-24T17:19:55.564Z,98878.75
2023-04-24T17:22:22.169Z,98889.53
2023-04-24T17:24:48.661Z,98898.34
2023-04-24T17:27:15.694Z,98897.56
2023-04-24T17:29:42.466Z,98897.59
2023-04-24T17:32:09.893Z,98903.19
2023-04-24T17:34:36.462Z,98906.00
2023-04-24T17:37:04.872Z,98919.19
2023-04-24T17:39:31.366Z,98931.19
2023-04-24T17:41:58.260Z,98928.00
2023-04-24T17:44:25.087Z,98921.59
2023-04-24T17:46:51.726Z,98926.00
2023-04-24T17:49:18.286Z,98935.16
2023-04-24T17:51:44.935Z,98933.56
2023-04-24T17:54:12.314Z,98932.38
2023-04-24T17:56:38.734Z,98938.38
2023-04-24T17:59:05.246Z,98951.16
2023-04-24T18:01:31.838Z,98955.94
2023-04-24T18:03:58.562Z,98961.53
2023-04-24T18:06:25.291Z,98962.31
2023-04-24T18:08:51.749Z,98960.22
2023-04-24T18:11:18.458Z,98979.75
2023-04-24T18:13:46.572Z,98978.88
2023-04-24T18:16:13.178Z,98978.41
2023-04-24T18:18:39.815Z,98983.97
2023-04-24T18:21:06.399Z,99001.09
2023-04-24T18:23:33.066Z,99003.00
2023-04-24T18:25:59.494Z,98997.00
2023-04-24T18:28:25.964Z,98997.69
2023-04-24T18:30:52.618Z,99002.41
2023-04-24T18:33:19.092Z,99007.53
2023-04-24T18:35:45.745Z,99014.22
2023-04-24T18:38:12.295Z,99021.75
2023-04-24T18:40:39.050Z,99023.25
2023-04-24T18:43:06.306Z,99029.69
2023-04-24T18:45:32.902Z,99023.91
2023-04-24T18:47:59.430Z,99028.69
2023-04-24T18:50:27.703Z,99033.84
2023-04-24T18:52:54.273Z,99034.66
2023-04-24T18:55:21.013Z,99035.41
2023-04-24T18:57:47.824Z,99043.44
2023-04-24T19:00:14.632Z,99047.00
2023-04-24T19:02:41.423Z,99047.34
2023-04-24T19:05:10.335Z,99048.97
2023-04-24T19:07:36.952Z,99044.97
2023-04-24T19:10:03.984Z,99049.41
2023-04-24T19:12:30.618Z,99056.22
2023-04-24T19:14:57.985Z,99059.41
2023-04-24T19:17:25.519Z,99059.75
2023-04-24T19:19:52.357Z,99060.94
2023-04-24T19:22:20.498Z,99073.66
2023-04-24T19:24:47.664Z,99073.25
2023-04-24T19:27:14.436Z,99071.69
2023-04-24T19:29:42.133Z,99059.31
2023-04-24T19:32:09.015Z,99071.19
2023-04-24T19:34:36.725Z,99068.69
2023-04-24T19:37:04.666Z,99070.09
2023-04-24T19:39:32.437Z,99077.19
2023-04-24T19:42:00.305Z,99070.34
2023-04-24T19:44:26.893Z,99074.25
2023-04-24T19:46:53.572Z,99075.78
2023-04-24T19:49:20.041Z,99076.19
2023-04-24T19:51:46.564Z,99072.06
2023-04-24T19:54:13.930Z,99073.19
2023-04-24T19:56:40.537Z,99069.44
2023-04-24T19:59:07.734Z,99072.53
2023-04-24T20:01:34.319Z,99083.91
2023-04-24T20:04:01.999Z,99078.34
2023-04-24T20:06:29.646Z,99078.13
2023-04-24T20:08:56.644Z,99073.81
2023-04-24T20:11:23.197Z,99086.09
2023-04-24T20:13:49.807Z,99086.25
2023-04-24T20:16:16.678Z,99082.19
2023-04-24T20:18:43.440Z,99083.91
2023-04-24T20:21:09.889Z,99093.00
2023-04-24T20:23:37.460Z,99100.53
2023-04-24T20:26:04.983Z,99091.94
2023-04-24T20:28:31.618Z,99093.88
2023-04-24T20:30:59.036Z,99099.72
2023-04-24T20:33:28.022Z,99093.28
2023-04-24T20:35:54.654Z,99109.50
2023-04-24T20:38:22.585Z,99094.59
2023-04-24T20:40:57.629Z,99097.75
2023-04-24T20:43:28.368Z,99102.41
2023-04-24T20:45:56.381Z,99089.16
2023-04-24T20:48:23.094Z,99095.41
2023-04-24T20:50:50.188Z,99095.41
2023-04-24T20:53:16.705Z,99096.88
2023-04-24T20:55:43.282Z,99094.91
2023-04-24T20:58:09.993Z,99097.75
2023-04-24T21:00:36.474Z,99096.88
2023-04-24T21:03:03.305Z,99097.81
2023-04-24T21:05:29.872Z,99104.88
2023-04-24T21:07:56.502Z,99093.25
2023-04-24T21:10:24.187Z,99099.19
2023-04-24T21:12:51.121Z,99104.75
2023-04-24T21:15:18.162Z,99103.44
2023-04-24T21:17:44.936Z,99098.69
2023-04-24T21:20:11.753Z,99104.16
2023-04-24T21:22:38.224Z,99103.88
2023-04-24T21:25:05.368Z,99103.88
2023-04-24T21:27:32.249Z,99103.88
2023-04-24T21:29:58.761Z,99100.94
2023-04-24T21:32:25.400Z,99105.50
2023-04-24T21:34:52.294Z,99100.56
2023-04-24T21:37:18.845Z,99100.00
2023-04-24T21:39:45.414Z,99094.72
2023-04-24T21:42:11.979Z,99103.44
2023-04-24T21:44:38.623Z,99091.34
2023-04-24T21:47:05.674Z,99091.16
2023-04-24T21:49:32.136Z,99092.97
2023-04-24T21:51:58.694Z,99088.66
2023-04-24T21:54:25.253Z,99091.00
2023-04-24T21:56:51.794Z,99089.25
2023-04-24T21:59:18.419Z,99087.69
2023-04-24T22:01:44.935Z,99081.41
2023-04-24T22:04:11.872Z,99079.16
2023-04-24T22:06:38.855Z,99085.41
2023-04-24T22:09:05.921Z,99082.66
2023-04-24T22:11:32.533Z,99084.41
2023-04-24T22:13:59.209Z,99079.97
2023-04-24T22:16:25.793Z,99076.38
2023-04-24T22:18:55.589Z,99070.28
2023-04-24T22:21:22.843Z,99080.53
2023-04-24T22:23:49.655Z,99081.94
2023-04-24T22:26:16.715Z,99070.44
2023-04-24T22:28:43.150Z,99068.28
2023-04-24T22:31:10.025Z,99073.97
2023-04-24T22:33:36.678Z,99074.63
2023-04-24T22:36:03.394Z,99077.44
2023-04-24T22:38:29.814Z,99069.84
2023-04-24T22:40:56.380Z,99075.75
2023-04-24T22:43:22.872Z,99078.53
2023-04-24T22:45:49.343Z,99070.56
2023-04-24T22:48:16.389Z,99070.56
2023-04-24T22:50:42.814Z,99086.88
2023-04-24T22:53:09.369Z,99088.63
2023-04-24T22:55:36.740Z,99089.25
2023-04-24T22:58:03.204Z,99094.00
2023-04-24T23:00:29.715Z,99090.06
2023-04-24T23:02:56.244Z,99102.19
2023-04-24T23:05:25.085Z,99102.09
2023-04-24T23:07:51.920Z,99102.53
2023-04-24T23:10:18.604Z,99099.19
2023-04-24T23:12:45.083Z,99100.53
2023-04-24T23:15:12.288Z,99097.50
2023-04-24T23:17:39.087Z,99101.34
2023-04-24T23:20:06.347Z,99111.09
2023-04-24T23:22:33.667Z,99106.69
2023-04-24T23:25:01.517Z,99099.56
2023-04-24T23:27:28.895Z,99098.38
2023-04-24T23:29:55.605Z,99093.28
2023-04-24T23:32:22.492Z,99094.19
2023-04-24T23:34:49.452Z,99084.53
2023-04-24T23:37:19.093Z,99093.06
2023-04-24T23:39:45.928Z,99088.22
2023-04-24T23:42:12.681Z,99083.91
2023-04-24T23:44:39.277Z,99086.69
2023-04-24T23:47:05.868Z,99084.00
2023-04-24T23:49:32.842Z,99084.72
2023-04-24T23:51:59.301Z,99086.97
2023-04-24T23:54:26.391Z,99084.19
2023-04-24T23:56:52.821Z,99081.06
2023-04-24T23:59:22.555Z,99084.88
